Time;durP1;ratioP1;P1;durP2;ratioP2;P2;SDS_P1;SDS_P2;PMS_P1;PMS_P2;Temp;Humidity;BMP_temperature;BMP_pressure;BME280_temperature;BME280_humidity;BME280_pressure;Samples;Min_cycle;Max_cycle;Signal;HPM_P1;HPM_P2
2022/08/23 00:00:21;;;;;;;8.98;3.42;;;;;;;;;;5036639;28;20112;-75
2022/08/23 00:02:47;;;;;;;9.10;3.70;;;;;;;;;;5062117;28;20032;-76
2022/08/23 00:05:14;;;;;;;10.05;3.85;;;;;;;;;;5047182;28;20025;-75
2022/08/23 00:07:42;;;;;;;9.50;3.53;;;18.90;99.90;;;;;;5061798;28;20499;-75
2022/08/23 00:10:10;;;;;;;9.70;3.40;;;18.80;99.90;;;;;;5048189;28;20048;-75
2022/08/23 00:12:38;;;;;;;9.55;3.55;;;;;;;;;;5054680;28;20035;-75
2022/08/23 00:15:05;;;;;;;12.40;4.50;;;;;;;;;;5052074;28;20470;-75
2022/08/23 00:17:31;;;;;;;14.40;4.45;;;;;;;;;;5062431;28;20025;-75
2022/08/23 00:19:57;;;;;;;12.82;4.30;;;;;;;;;;5047608;28;20050;-75
2022/08/23 00:22:23;;;;;;;9.40;3.80;;;;;;;;;;5048281;28;20033;-75
2022/08/23 00:24:50;;;;;;;9.20;3.95;;;;;;;;;;5065220;28;20567;-75
2022/08/23 00:27:17;;;;;;;9.77;4.32;;;;;;;;;;5062173;28;20037;-75
2022/08/23 00:29:49;;;;;;;9.88;4.75;;;;;;;;;;5069502;28;20037;-76
2022/08/23 00:32:15;;;;;;;;;;;;;;;;;;5055700;28;20059;-74
2022/08/23 00:34:41;;;;;;;10.32;3.70;;;;;;;;;;5069634;28;19908;-75
2022/08/23 00:37:08;;;;;;;11.98;4.40;;;18.50;99.90;;;;;;5056812;28;20107;-74
2022/08/23 00:39:34;;;;;;;9.80;5.00;;;;;;;;;;5043580;28;20041;-74
2022/08/23 00:47:38;;;;;;;15.85;4.45;;;;;;;;;;5059208;28;20032;-75
2022/08/23 00:47:40;;;;;;;9.73;4.25;;;;;;;;;;5051215;28;20052;-74
2022/08/23 00:50:12;;;;;;;8.38;4.72;;;;;;;;;;5035634;28;20097;-74
2022/08/23 00:52:41;;;;;;;10.40;4.78;;;;;;;;;;5052020;28;20028;-74
2022/08/23 00:55:07;;;;;;;10.25;4.05;;;;;;;;;;5049707;28;20190;-74
2022/08/23 00:57:36;;;;;;;13.05;4.45;;;;;;;;;;5057036;28;20500;-74
2022/08/23 01:00:02;;;;;;;10.27;4.53;;;;;;;;;;5045593;28;20029;-74
2022/08/23 01:02:28;;;;;;;10.73;4.95;;;;;;;;;;5047875;28;21086;-74
2022/08/23 01:04:56;;;;;;;13.43;4.63;;;;;;;;;;5054615;28;20033;-74
2022/08/23 01:07:54;;;;;;;11.02;4.60;;;18.20;99.90;;;;;;5047133;28;20033;-74
2022/08/23 01:10:20;;;;;;;21.45;10.45;;;;;;;;;;5053395;28;20041;-77
2022/08/23 01:12:50;;;;;;;15.63;9.95;;;;;;;;;;5047726;28;20036;-76
2022/08/23 01:15:26;;;;;;;22.90;7.70;;;18.30;99.90;;;;;;5069755;28;20111;-80
2022/08/23 01:18:03;;;;;;;12.05;4.93;;;;;;;;;;5061591;28;20034;-75
2022/08/23 01:20:32;;;;;;;16.08;8.45;;;;;;;;;;5053748;28;20053;-76
2022/08/23 01:23:01;;;;;;;14.18;8.10;;;;;;;;;;5069150;28;20377;-75
2022/08/23 01:25:30;;;;;;;11.05;6.50;;;;;;;;;;5056629;28;20031;-76
2022/08/23 01:27:56;;;;;;;16.48;7.95;;;;;;;;;;5055028;28;20039;-78
2022/08/23 01:30:25;;;;;;;19.48;12.27;;;;;;;;;;5076461;28;20117;-76
2022/08/23 01:32:53;;;;;;;12.25;6.00;;;;;;;;;;5052352;28;20040;-74
2022/08/23 01:35:20;;;;;;;10.70;4.35;;;;;;;;;;5054049;28;20063;-74
2022/08/23 01:37:46;;;;;;;12.05;5.45;;;;;;;;;;5055889;28;20028;-74
2022/08/23 01:40:13;;;;;;;11.00;4.90;;;;;;;;;;5040187;28;20044;-74
2022/08/23 01:42:41;;;;;;;10.07;4.80;;;;;;;;;;5055697;28;20040;-74
2022/08/23 01:45:12;;;;;;;12.05;4.95;;;;;;;;;;5054824;28;20044;-74
2022/08/23 01:47:39;;;;;;;9.00;4.80;;;;;;;;;;5057704;28;20032;-73
2022/08/23 01:50:06;;;;;;;9.57;4.70;;;;;;;;;;5044140;28;20537;-74
2022/08/23 01:52:33;;;;;;;13.60;4.93;;;;;;;;;;5049596;28;20040;-74
2022/08/23 01:55:00;;;;;;;9.27;5.07;;;;;;;;;;5058808;28;20089;-75
2022/08/23 01:57:27;;;;;;;9.57;4.80;;;;;;;;;;5047176;28;20037;-74
2022/08/23 01:59:53;;;;;;;11.18;5.57;;;;;;;;;;5053394;28;20379;-74
2022/08/23 02:02:20;;;;;;;8.88;4.65;;;;;;;;;;5061856;28;20106;-75
2022/08/23 02:04:46;;;;;;;12.63;5.43;;;;;;;;;;5051832;28;20029;-75
2022/08/23 02:07:12;;;;;;;12.65;5.68;;;;;;;;;;5048474;28;20024;-76
2022/08/23 02:09:38;;;;;;;15.95;6.35;;;;;;;;;;5038652;28;20056;-74
2022/08/23 02:12:05;;;;;;;15.18;10.40;;;;;;;;;;5044920;28;20044;-75
2022/08/23 02:14:31;;;;;;;13.13;7.65;;;;;;;;;;5043042;28;20436;-75
2022/08/23 02:16:57;;;;;;;9.10;5.53;;;;;;;;;;5048526;28;20052;-76
2022/08/23 02:19:24;;;;;;;11.27;6.10;;;;;;;;;;5070708;28;20059;-75
2022/08/23 02:21:50;;;;;;;12.85;5.13;;;;;;;;;;5049443;28;20037;-75
2022/08/23 02:24:21;;;;;;;12.13;6.13;;;;;;;;;;5033384;28;20071;-75
2022/08/23 02:26:49;;;;;;;8.40;4.90;;;;;;;;;;5060365;28;20029;-75
2022/08/23 02:29:16;;;;;;;9.82;4.88;;;;;;;;;;5051982;28;20500;-75
2022/08/23 02:31:45;;;;;;;8.55;5.10;;;;;;;;;;5053621;28;20465;-75
2022/08/23 02:34:12;;;;;;;9.35;5.35;;;;;;;;;;5051898;28;20040;-75
2022/08/23 02:36:38;;;;;;;12.13;5.40;;;;;;;;;;5063601;28;20028;-75
2022/08/23 02:39:05;;;;;;;10.85;5.38;;;;;;;;;;5064376;28;20037;-75
2022/08/23 02:41:31;;;;;;;8.85;5.32;;;;;;;;;;5045978;28;20036;-75
2022/08/23 02:43:58;;;;;;;7.43;4.50;;;;;;;;;;5048940;28;20108;-75
2022/08/23 02:46:24;;;;;;;8.20;4.93;;;;;;;;;;5062482;28;20033;-75
2022/08/23 02:48:50;;;;;;;10.18;5.03;;;;;;;;;;5061753;28;20028;-75
2022/08/23 02:51:17;;;;;;;7.85;4.70;;;17.40;99.90;;;;;;5061677;28;20033;-75
2022/08/23 02:53:43;;;;;;;10.88;4.82;;;;;;;;;;5042122;28;20107;-75
2022/08/23 02:56:10;;;;;;;7.65;4.40;;;;;;;;;;5062193;28;20496;-75
2022/08/23 02:58:36;;;;;;;10.52;5.35;;;;;;;;;;5056771;28;20036;-75
2022/08/23 03:01:02;;;;;;;7.10;4.00;;;;;;;;;;5063068;28;20044;-75
2022/08/23 03:03:28;;;;;;;11.35;5.25;;;;;;;;;;5057720;28;20116;-76
2022/08/23 03:05:54;;;;;;;6.45;4.68;;;;;;;;;;5040190;28;20021;-75
2022/08/23 03:08:21;;;;;;;12.73;5.40;;;;;;;;;;5062241;28;20108;-75
2022/08/23 03:10:48;;;;;;;7.53;4.45;;;;;;;;;;5058262;28;20067;-75
2022/08/23 03:13:14;;;;;;;8.73;4.43;;;17.30;99.90;;;;;;5041587;28;20032;-76
2022/08/23 03:15:40;;;;;;;12.90;4.95;;;;;;;;;;5034500;28;20031;-76
2022/08/23 03:18:07;;;;;;;11.02;5.53;;;17.00;99.90;;;;;;5056100;28;20112;-75
2022/08/23 03:20:33;;;;;;;11.15;5.32;;;;;;;;;;5056878;28;20055;-76
2022/08/23 03:23:00;;;;;;;11.65;5.38;;;;;;;;;;5050624;28;20025;-76
2022/08/23 03:25:27;;;;;;;13.88;6.00;;;17.00;99.90;;;;;;5031816;28;20457;-76
2022/08/23 03:27:54;;;;;;;10.52;5.72;;;;;;;;;;5052770;28;20033;-76
2022/08/23 03:30:20;;;;;;;11.10;5.55;;;;;;;;;;5033670;28;20037;-76
2022/08/23 03:32:46;;;;;;;11.48;5.32;;;;;;;;;;5052662;28;20048;-75
2022/08/23 03:35:12;;;;;;;14.52;5.85;;;;;;;;;;5032852;28;20021;-76
2022/08/23 03:37:38;;;;;;;12.68;5.40;;;;;;;;;;5041786;28;20048;-75
2022/08/23 03:40:06;;;;;;;11.15;6.55;;;;;;;;;;5051740;28;20033;-75
2022/08/23 03:42:32;;;;;;;11.50;6.22;;;;;;;;;;5049610;28;20414;-76
2022/08/23 03:44:58;;;;;;;11.02;5.43;;;;;;;;;;5047512;28;20032;-75
2022/08/23 03:47:25;;;;;;;10.15;5.65;;;;;;;;;;5049001;28;20078;-75
2022/08/23 03:49:51;;;;;;;11.73;6.03;;;;;;;;;;5047662;28;20468;-76
2022/08/23 03:52:17;;;;;;;12.60;5.88;;;;;;;;;;5054042;28;20051;-76
2022/08/23 03:54:43;;;;;;;7.45;5.43;;;;;;;;;;5050423;28;20040;-76
2022/08/23 03:57:09;;;;;;;11.38;5.50;;;;;;;;;;5048007;28;20056;-75
2022/08/23 03:59:37;;;;;;;11.68;6.05;;;;;;;;;;5048313;28;20040;-75
2022/08/23 04:02:04;;;;;;;6.60;5.20;;;16.90;99.90;;;;;;5042476;28;20026;-75
2022/08/23 04:04:29;;;;;;;12.65;6.00;;;16.90;99.90;;;;;;5046470;28;20045;-75
2022/08/23 04:06:55;;;;;;;13.40;5.15;;;;;;;;;;5050829;28;20028;-76
2022/08/23 04:09:22;;;;;;;11.23;5.65;;;;;;;;;;5040704;28;20037;-75
2022/08/23 04:11:48;;;;;;;7.88;4.97;;;;;;;;;;5048091;28;20040;-76
2022/08/23 04:14:14;;;;;;;11.25;5.40;;;;;;;;;;5058805;28;20025;-75
2022/08/23 04:16:40;;;;;;;11.82;6.03;;;;;;;;;;5053623;28;20504;-75
2022/08/23 04:19:07;;;;;;;11.32;5.50;;;;;;;;;;5047503;28;20060;-76
2022/08/23 04:21:36;;;;;;;9.80;5.82;;;16.60;99.90;;;;;;5048288;28;20079;-75
2022/08/23 04:24:02;;;;;;;9.60;5.75;;;;;;;;;;5050910;28;20528;-75
2022/08/23 04:26:28;;;;;;;10.57;5.65;;;;;;;;;;5055475;28;20037;-75
2022/08/23 04:28:54;;;;;;;8.27;5.97;;;;;;;;;;5038931;28;20033;-75
2022/08/23 04:31:20;;;;;;;9.93;6.78;;;;;;;;;;5059482;28;20112;-75
2022/08/23 04:33:46;;;;;;;11.27;7.57;;;;;;;;;;5031444;28;20453;-74
2022/08/23 04:36:13;;;;;;;10.82;6.80;;;;;;;;;;5043959;28;20094;-74
2022/08/23 04:38:40;;;;;;;12.45;7.07;;;;;;;;;;5059758;28;20040;-75
2022/08/23 04:43:50;;;;;;;11.02;7.05;;;;;;;;;;5048779;28;20127;-74
2022/08/23 04:46:17;;;;;;;13.40;7.97;;;;;;;;;;5044859;28;20115;-74
2022/08/23 04:48:44;;;;;;;13.07;7.05;;;;;;;;;;5048080;28;20477;-75
2022/08/23 04:51:10;;;;;;;14.25;8.88;;;;;;;;;;5057095;28;20047;-74
2022/08/23 04:53:36;;;;;;;10.45;7.60;;;;;;;;;;5043518;28;20032;-74
2022/08/23 04:56:03;;;;;;;20.35;9.45;;;;;;;;;;5047958;28;20022;-76
2022/08/23 04:58:30;;;;;;;15.95;9.68;;;16.80;99.90;;;;;;5062871;28;20063;-76
2022/08/23 05:00:57;;;;;;;14.45;8.93;;;;;;;;;;5053747;28;20033;-75
2022/08/23 05:03:23;;;;;;;14.95;10.82;;;;;;;;;;5049298;28;20028;-76
2022/08/23 05:05:51;;;;;;;10.13;6.50;;;;;;;;;;5054349;28;20446;-75
2022/08/23 05:08:17;;;;;;;11.18;6.80;;;;;;;;;;5052965;28;20032;-75
2022/08/23 05:10:43;;;;;;;11.93;6.65;;;;;;;;;;5075275;28;20033;-76
2022/08/23 05:13:09;;;;;;;10.20;6.53;;;;;;;;;;5062438;28;20052;-75
2022/08/23 05:15:35;;;;;;;12.43;6.40;;;;;;;;;;5044817;28;20091;-75
2022/08/23 05:18:01;;;;;;;8.77;6.90;;;;;;;;;;5046739;28;20084;-76
2022/08/23 05:20:27;;;;;;;18.88;6.97;;;;;;;;;;5052417;28;20069;-75
2022/08/23 05:22:54;;;;;;;15.48;7.18;;;;;;;;;;5059631;28;20035;-76
2022/08/23 05:25:20;;;;;;;16.23;8.43;;;;;;;;;;5046580;28;20040;-80
2022/08/23 05:27:46;;;;;;;13.73;7.07;;;;;;;;;;5066442;28;20147;-74
2022/08/23 05:30:12;;;;;;;14.35;8.88;;;;;;;;;;5038894;28;20017;-74
2022/08/23 05:32:39;;;;;;;18.02;8.45;;;;;;;;;;5061607;28;20490;-73
2022/08/23 05:35:05;;;;;;;13.88;8.70;;;;;;;;;;5072516;28;20128;-76
2022/08/23 05:37:31;;;;;;;15.32;9.40;;;17.20;99.90;;;;;;5067010;28;20032;-75
2022/08/23 05:39:57;;;;;;;12.20;8.48;;;;;;;;;;5062646;28;20040;-76
2022/08/23 05:42:23;;;;;;;13.55;8.82;;;;;;;;;;5051055;28;20536;-76
2022/08/23 05:44:49;;;;;;;15.45;8.68;;;;;;;;;;5068136;28;20037;-75
2022/08/23 05:47:16;;;;;;;15.93;8.63;;;;;;;;;;5051369;28;20441;-75
2022/08/23 05:49:42;;;;;;;13.05;8.43;;;;;;;;;;5067397;28;20550;-75
2022/08/23 05:52:10;;;;;;;17.27;8.50;;;;;;;;;;5039808;28;20037;-74
2022/08/23 05:54:37;;;;;;;13.85;9.02;;;;;;;;;;5057995;28;20025;-74
2022/08/23 05:57:03;;;;;;;13.48;8.73;;;;;;;;;;5065529;28;20392;-76
2022/08/23 05:59:29;;;;;;;13.50;9.18;;;;;;;;;;5044625;28;20041;-76
2022/08/23 06:01:56;;;;;;;13.52;8.77;;;;;;;;;;5060845;28;20523;-74
2022/08/23 06:04:22;;;;;;;24.58;16.70;;;;;;;;;;5072320;28;20476;-74
2022/08/23 06:06:49;;;;;;;10.13;8.15;;;;;;;;;;5044307;28;20141;-76
2022/08/23 06:09:15;;;;;;;19.08;11.88;;;;;;;;;;5051133;28;20024;-75
2022/08/23 06:11:43;;;;;;;15.27;9.63;;;;;;;;;;5054173;28;20033;-79
2022/08/23 06:14:09;;;;;;;13.73;8.55;;;;;;;;;;5053249;28;20028;-72
2022/08/23 06:16:38;;;;;;;12.98;8.80;;;17.70;99.90;;;;;;5051611;28;20032;-73
2022/08/23 06:19:05;;;;;;;13.75;8.07;;;;;;;;;;5051388;28;20132;-73
2022/08/23 06:21:31;;;;;;;14.27;8.60;;;;;;;;;;5022689;28;20160;-73
2022/08/23 06:23:57;;;;;;;13.43;9.05;;;;;;;;;;5039290;28;20116;-73
2022/08/23 06:26:25;;;;;;;12.82;8.95;;;;;;;;;;5037491;28;20037;-73
2022/08/23 06:28:54;;;;;;;17.80;8.90;;;18.00;99.90;;;;;;5044479;28;20603;-73
2022/08/23 06:34:06;;;;;;;12.18;8.02;;;;;;;;;;5043568;28;20114;-73
2022/08/23 06:36:32;;;;;;;13.25;8.27;;;;;;;;;;5052778;28;20377;-73
2022/08/23 06:38:58;;;;;;;11.52;7.85;;;18.20;99.90;;;;;;5069332;28;20499;-73
2022/08/23 06:41:24;;;;;;;12.68;8.00;;;;;;;;;;5048694;28;20045;-74
2022/08/23 06:43:50;;;;;;;14.77;8.13;;;;;;;;;;5063140;28;20066;-73
2022/08/23 06:46:20;;;;;;;9.93;6.80;;;;;;;;;;5066364;28;20029;-73
2022/08/23 06:48:47;;;;;;;12.18;7.10;;;;;;;;;;5034437;28;20503;-73
2022/08/23 06:51:18;;;;;;;11.27;7.32;;;18.90;99.90;;;;;;5033754;28;20598;-73
2022/08/23 06:53:44;;;;;;;14.88;7.18;;;;;;;;;;5055161;28;20020;-73
2022/08/23 06:56:10;;;;;;;13.13;7.43;;;;;;;;;;5072440;28;20391;-73
2022/08/23 06:58:37;;;;;;;10.30;7.40;;;;;;;;;;5047842;28;20099;-73
2022/08/23 07:01:10;;;;;;;12.68;6.70;;;;;;;;;;5055849;28;20051;-74
2022/08/23 07:03:36;;;;;;;9.52;6.05;;;;;;;;;;5050417;28;20539;-73
2022/08/23 07:06:02;;;;;;;10.73;6.40;;;;;;;;;;5037628;28;20061;-73
2022/08/23 07:08:28;;;;;;;9.55;5.55;;;;;;;;;;5050417;28;20029;-73
2022/08/23 07:10:57;;;;;;;8.23;5.78;;;;;;;;;;5048150;28;20033;-74
2022/08/23 07:13:23;;;;;;;10.55;5.95;;;;;;;;;;5038077;28;20036;-73
2022/08/23 07:15:49;;;;;;;8.57;5.00;;;;;;;;;;5059385;28;20064;-74
2022/08/23 07:18:15;;;;;;;10.00;5.40;;;20.20;99.90;;;;;;5037759;28;20693;-73
2022/08/23 07:20:40;;;;;;;14.00;5.65;;;20.30;99.90;;;;;;5059077;28;20049;-73
2022/08/23 07:23:06;;;;;;;10.43;5.28;;;;;;;;;;5037694;28;20087;-73
2022/08/23 07:25:32;;;;;;;8.48;5.50;;;;;;;;;;5050814;28;20104;-73
2022/08/23 07:28:00;;;;;;;11.85;5.47;;;;;;;;;;5064150;28;20031;-74
2022/08/23 07:30:26;;;;;;;8.70;5.43;;;;;;;;;;5031000;28;20028;-74
2022/08/23 07:32:52;;;;;;;9.00;4.85;;;;;;;;;;5052230;28;20388;-74
2022/08/23 07:35:18;;;;;;;6.88;4.10;;;;;;;;;;5049568;28;20048;-73
2022/08/23 07:37:44;;;;;;;10.85;5.03;;;;;;;;;;5052043;28;20021;-73
2022/08/23 07:40:10;;;;;;;15.38;5.00;;;;;;;;;;5051245;28;20066;-73
2022/08/23 07:42:36;;;;;;;10.30;4.07;;;;;;;;;;5054112;28;20037;-73
2022/08/23 07:45:02;;;;;;;11.27;5.32;;;;;;;;;;5040407;28;20040;-74
2022/08/23 07:47:29;;;;;;;10.00;4.40;;;;;;;;;;5045737;28;20040;-73
2022/08/23 07:49:55;;;;;;;7.95;4.40;;;;;;;;;;5043251;28;20025;-73
2022/08/23 07:52:21;;;;;;;13.23;4.05;;;;;;;;;;5054383;28;20111;-73
2022/08/23 07:54:47;;;;;;;7.47;3.78;;;;;;;;;;5053902;28;20071;-73
2022/08/23 07:57:13;;;;;;;7.07;3.55;;;;;;;;;;5051208;28;20465;-73
2022/08/23 07:59:39;;;;;;;8.05;3.33;;;;;;;;;;5047679;28;20033;-73
2022/08/23 08:02:05;;;;;;;8.80;3.67;;;;;;;;;;5066898;28;20037;-74
2022/08/23 08:04:31;;;;;;;15.07;3.50;;;;;;;;;;5041338;28;20048;-74
2022/08/23 08:06:59;;;;;;;7.07;3.58;;;;;;;;;;5050004;28;20033;-73
2022/08/23 08:09:25;;;;;;;8.07;4.13;;;;;;;;;;5048863;28;20116;-73
2022/08/23 08:11:51;;;;;;;6.60;3.80;;;23.20;99.90;;;;;;5050378;28;20124;-73
2022/08/23 08:14:17;;;;;;;8.98;3.58;;;;;;;;;;5048758;28;20514;-73
2022/08/23 08:16:44;;;;;;;8.50;3.72;;;;;;;;;;5031539;28;20433;-73
2022/08/23 08:19:13;;;;;;;7.32;3.22;;;24.70;99.90;;;;;;5048887;28;20049;-73
2022/08/23 08:21:40;;;;;;;7.10;3.05;;;;;;;;;;5048873;28;20063;-73
2022/08/23 08:24:07;;;;;;;6.65;3.15;;;;;;;;;;5041180;28;20446;-74
2022/08/23 08:26:33;;;;;;;5.20;2.70;;;;;;;;;;5047152;28;20025;-73
2022/08/23 08:28:59;;;;;;;7.07;3.25;;;;;;;;;;5054493;28;20057;-74
2022/08/23 08:31:25;;;;;;;11.40;3.97;;;;;;;;;;5051289;28;20426;-73
2022/08/23 08:33:51;;;;;;;4.03;2.88;;;25.00;99.90;;;;;;5048466;28;20112;-73
2022/08/23 08:36:36;;;;;;;7.63;3.65;;;;;;;;;;5050829;28;20108;-73
2022/08/23 08:39:04;;;;;;;8.10;3.08;;;25.40;99.90;;;;;;5037867;28;20025;-75
2022/08/23 08:41:37;;;;;;;5.55;2.92;;;;;;;;;;5043412;28;20044;-74
2022/08/23 08:44:10;;;;;;;5.72;2.40;;;;;;;;;;5048686;28;20033;-73
2022/08/23 08:46:49;;;;;;;6.38;2.78;;;25.80;99.90;;;;;;5032263;28;20500;-73
2022/08/23 08:49:37;;;;;;;6.20;2.40;;;25.70;99.90;;;;;;5049135;28;20021;-73
2022/08/23 08:52:24;;;;;;;5.00;2.42;;;26.10;99.90;;;;;;5036479;28;20669;-73
2022/08/23 08:54:54;;;;;;;7.43;2.70;;;;;;;;;;5028724;28;20041;-74
2022/08/23 08:57:24;;;;;;;10.18;2.90;;;26.00;99.90;;;;;;5046991;28;20489;-73
2022/08/23 09:00:03;;;;;;;11.40;3.13;;;26.10;99.90;;;;;;5050365;28;20037;-74
2022/08/23 09:02:32;;;;;;;11.55;3.10;;;26.20;99.90;;;;;;5030282;28;20038;-74
2022/08/23 09:05:02;;;;;;;9.75;3.50;;;26.10;99.90;;;;;;5066298;28;20040;-74
2022/08/23 09:07:38;;;;;;;8.88;3.22;;;;;;;;;;5049414;28;20037;-74
2022/08/23 09:10:22;;;;;;;9.55;3.40;;;;;;;;;;5034583;28;20084;-74
2022/08/23 09:13:19;;;;;;;12.13;3.08;;;25.90;99.90;;;;;;5031142;28;20036;-73
2022/08/23 09:16:23;;;;;;;6.88;3.05;;;25.90;99.90;;;;;;5042478;28;20025;-74
2022/08/23 09:18:49;;;;;;;4.88;3.28;;;;;;;;;;5035389;28;20049;-74
2022/08/23 09:21:16;;;;;;;7.88;3.53;;;;;;;;;;5050633;28;20064;-73
2022/08/23 09:23:44;;;;;;;7.45;3.65;;;;;;;;;;5049611;28;20033;-73
2022/08/23 09:26:16;;;;;;;5.05;3.08;;;;;;;;;;5069067;28;20033;-73
2022/08/23 09:28:44;;;;;;;13.10;2.60;;;;;;;;;;5058074;28;20040;-73
2022/08/23 09:31:10;;;;;;;4.60;2.60;;;27.00;99.90;;;;;;5052067;28;20428;-73
2022/08/23 09:33:41;;;;;;;6.20;3.28;;;;;;;;;;5038153;28;20029;-73
2022/08/23 09:36:30;;;;;;;6.97;3.10;;;28.00;97.20;;;;;;5052434;28;20029;-73
2022/08/23 09:39:01;;;;;;;11.23;3.85;;;28.50;96.40;;;;;;5037223;28;20052;-74
2022/08/23 09:41:31;;;;;;;11.68;3.13;;;;;;;;;;5051116;28;20037;-74
2022/08/23 09:44:00;;;;;;;6.60;2.83;;;;;;;;;;5042144;28;20116;-74
2022/08/23 09:46:28;;;;;;;16.65;2.90;;;;;;;;;;5053795;28;20090;-74
2022/08/23 09:48:54;;;;;;;7.60;2.72;;;30.60;97.70;;;;;;5051592;28;20029;-74
2022/08/23 09:51:26;;;;;;;5.75;2.35;;;;;;;;;;5043006;28;20447;-74
2022/08/23 09:54:11;;;;;;;8.20;3.15;;;30.80;91.10;;;;;;5051274;28;20041;-74
2022/08/23 09:56:38;;;;;;;7.45;2.60;;;;;;;;;;5033695;28;20029;-74
2022/08/23 09:59:21;;;;;;;8.88;2.67;;;;;;;;;;5048120;28;20087;-74
2022/08/23 10:01:49;;;;;;;6.72;3.15;;;31.30;92.10;;;;;;5029120;28;20680;-74
2022/08/23 10:04:17;;;;;;;6.45;2.60;;;;;;;;;;5033814;28;20373;-74
2022/08/23 10:06:45;;;;;;;7.55;2.72;;;30.70;91.00;;;;;;5049447;28;20021;-74
2022/08/23 10:09:22;;;;;;;5.15;2.42;;;;;;;;;;5042251;28;20024;-74
2022/08/23 10:11:48;;;;;;;5.78;2.78;;;;;;;;;;5050562;28;20029;-74
2022/08/23 10:14:17;;;;;;;8.55;3.25;;;31.10;90.80;;;;;;5052622;28;20029;-74
2022/08/23 10:17:07;;;;;;;5.85;2.97;;;31.20;86.50;;;;;;5053414;28;20036;-74
2022/08/23 10:19:42;;;;;;;6.18;2.50;;;31.30;86.60;;;;;;5034460;28;20045;-74
2022/08/23 10:22:18;;;;;;;7.95;2.30;;;31.60;88.30;;;;;;5028878;28;20064;-74
2022/08/23 10:24:44;;;;;;;6.20;1.77;;;;;;;;;;5044475;28;20039;-74
2022/08/23 10:30:44;;;;;;;11.70;3.10;;;;;;;;;;5040812;28;20040;-74
2022/08/23 10:33:11;;;;;;;6.57;1.77;;;;;;;;;;5051678;28;20033;-75
2022/08/23 10:35:49;;;;;;;7.65;2.30;;;;;;;;;;5060549;28;20029;-74
2022/08/23 10:38:23;;;;;;;7.18;2.10;;;;;;;;;;5035753;28;20465;-75
2022/08/23 10:41:10;;;;;;;7.65;2.35;;;33.20;99.90;;;;;;5052157;28;20115;-74
2022/08/23 10:44:21;;;;;;;5.82;2.83;;;33.30;97.40;;;;;;5052702;28;20029;-75
2022/08/23 10:47:09;;;;;;;6.28;2.45;;;33.40;98.00;;;;;;5053004;28;20036;-74
2022/08/23 10:49:37;;;;;;;6.15;2.40;;;33.40;97.40;;;;;;5035602;28;20474;-74
2022/08/23 10:52:05;;;;;;;5.28;1.98;;;33.60;97.90;;;;;;5051846;28;20033;-75
2022/08/23 10:54:58;;;;;;;4.85;2.10;;;33.40;97.40;;;;;;5047192;28;20039;-75
2022/08/23 10:57:31;;;;;;;5.35;1.80;;;33.70;97.70;;;;;;5046273;28;20037;-75
2022/08/23 10:59:58;;;;;;;5.15;1.77;;;33.60;98.50;;;;;;5051779;28;20021;-75
2022/08/23 11:02:23;;;;;;;6.10;1.98;;;33.70;98.70;;;;;;5024202;28;20037;-75
2022/08/23 11:05:05;;;;;;;3.17;1.42;;;33.60;98.60;;;;;;5051065;28;20044;-75
2022/08/23 11:07:33;;;;;;;;;;;;;;;;;;5038351;28;20071;-75
2022/08/23 11:10:10;;;;;;;6.68;1.90;;;;;;;;;;5036319;28;19916;-75
2022/08/23 11:12:51;;;;;;;6.22;1.85;;;;;;;;;;5030753;28;20079;-75
2022/08/23 11:15:29;;;;;;;4.93;1.77;;;;;;;;;;5051586;28;20056;-75
2022/08/23 11:17:59;;;;;;;3.63;1.60;;;;;;;;;;5043642;28;20041;-75
2022/08/23 11:20:49;;;;;;;4.53;1.60;;;34.30;97.90;;;;;;5032218;28;20051;-75
2022/08/23 11:23:35;;;;;;;6.03;1.55;;;33.60;87.90;;;;;;5044453;28;20033;-74
2022/08/23 11:26:02;;;;;;;5.88;1.75;;;;;;;;;;5041842;28;20624;-74
2022/08/23 11:28:28;;;;;;;4.30;2.03;;;;;;;;;;5029790;28;20044;-75
2022/08/23 11:31:17;;;;;;;5.20;1.80;;;32.60;94.50;;;;;;5036611;28;20026;-75
2022/08/23 11:33:46;;;;;;;3.13;1.63;;;32.40;84.60;;;;;;5048910;28;20242;-75
2022/08/23 11:36:12;;;;;;;7.13;1.88;;;;;;;;;;5051999;28;20033;-75
2022/08/23 11:38:46;;;;;;;5.93;2.30;;;32.40;94.90;;;;;;5052059;28;20480;-74
2022/08/23 11:41:23;;;;;;;7.22;2.20;;;32.70;95.00;;;;;;5054264;28;20037;-74
2022/08/23 11:44:12;;;;;;;7.68;1.83;;;32.40;95.20;;;;;;5049903;28;20044;-74
2022/08/23 11:46:50;;;;;;;6.88;1.88;;;;;;;;;;5050802;28;20380;-74
2022/08/23 11:49:40;;;;;;;6.88;1.67;;;32.00;85.40;;;;;;5051136;28;20037;-74
2022/08/23 11:52:05;;;;;;;4.65;1.75;;;32.00;95.40;;;;;;5051863;28;20385;-74
2022/08/23 11:55:04;;;;;;;6.03;1.63;;;32.20;92.30;;;;;;5033038;28;20029;-74
2022/08/23 11:57:33;;;;;;;4.28;1.80;;;;;;;;;;5042688;28;20044;-74
2022/08/23 12:00:17;;;;;;;5.20;2.00;;;32.20;91.00;;;;;;5048816;28;20380;-75
2022/08/23 12:03:01;;;;;;;4.97;1.75;;;;;;;;;;5041463;28;20033;-74
2022/08/23 12:05:41;;;;;;;3.30;1.50;;;31.90;96.20;;;;;;5037815;28;20068;-74
2022/08/23 12:08:15;;;;;;;5.53;1.80;;;32.30;96.30;;;;;;5056714;28;20021;-74
2022/08/23 12:10:41;;;;;;;4.68;1.83;;;32.50;96.50;;;;;;5074077;28;20033;-74
2022/08/23 12:13:19;;;;;;;5.45;2.42;;;32.50;88.20;;;;;;5045729;28;20043;-75
2022/08/23 12:16:12;;;;;;;4.65;2.20;;;32.40;87.80;;;;;;5047595;28;20033;-76
2022/08/23 12:18:52;;;;;;;10.40;2.03;;;32.40;96.40;;;;;;5029536;28;20037;-74
2022/08/23 12:21:26;;;;;;;7.20;2.10;;;;;;;;;;5039524;28;20040;-74
2022/08/23 12:24:12;;;;;;;10.55;2.30;;;32.30;91.80;;;;;;5041502;28;20033;-75
2022/08/23 12:26:37;;;;;;;10.13;2.35;;;32.30;97.20;;;;;;5051011;28;20061;-74
2022/08/23 12:29:22;;;;;;;5.60;2.30;;;32.20;92.00;;;;;;5051218;28;20021;-74
2022/08/23 12:32:02;;;;;;;7.38;2.20;;;32.40;92.70;;;;;;5048683;28;20037;-74
2022/08/23 12:34:38;;;;;;;7.30;1.65;;;;;;;;;;5059156;28;20128;-74
2022/08/23 12:37:35;;;;;;;5.68;1.70;;;32.40;90.70;;;;;;5052340;28;20033;-74
2022/08/23 12:40:02;;;;;;;12.02;2.15;;;;;;;;;;5049678;28;20109;-74
2022/08/23 12:42:32;;;;;;;5.88;2.20;;;32.40;90.20;;;;;;5043234;28;20041;-74
2022/08/23 12:45:20;;;;;;;7.40;2.38;;;32.60;92.60;;;;;;5050824;28;20032;-74
2022/08/23 12:47:59;;;;;;;6.93;1.98;;;32.70;93.10;;;;;;5030662;28;20041;-74
2022/08/23 12:50:42;;;;;;;3.25;1.50;;;32.60;92.70;;;;;;5061060;28;20070;-74
2022/08/23 12:53:15;;;;;;;3.75;1.55;;;32.50;93.40;;;;;;5048932;28;20037;-74
2022/08/23 12:55:49;;;;;;;4.88;1.65;;;;;;;;;;5049341;28;20040;-74
2022/08/23 12:58:24;;;;;;;9.10;1.60;;;32.60;92.70;;;;;;5044794;28;20145;-74
2022/08/23 13:00:56;;;;;;;5.75;1.80;;;32.70;92.80;;;;;;5046234;28;20461;-75
2022/08/23 13:03:34;;;;;;;5.40;1.83;;;32.60;92.90;;;;;;5051081;28;20087;-74
2022/08/23 13:06:04;;;;;;;5.57;2.45;;;32.60;91.40;;;;;;5049088;28;20033;-74
2022/08/23 13:08:39;;;;;;;6.22;1.75;;;32.40;93.20;;;;;;5052713;28;20029;-75
2022/08/23 13:11:06;;;;;;;2.90;1.65;;;32.40;94.10;;;;;;5054077;28;20108;-75
2022/08/23 13:13:32;;;;;;;5.30;2.05;;;32.50;94.50;;;;;;5054607;28;20377;-74
2022/08/23 13:16:01;;;;;;;9.93;2.20;;;32.10;94.40;;;;;;5053752;28;20029;-74
2022/08/23 13:18:39;;;;;;;9.80;1.83;;;32.20;94.80;;;;;;5052386;28;21143;-74
2022/08/23 13:21:18;;;;;;;4.53;2.10;;;31.90;94.60;;;;;;5047355;28;20029;-74
2022/08/23 13:23:45;;;;;;;4.65;1.77;;;32.20;95.40;;;;;;5046409;28;20043;-74
2022/08/23 13:26:35;;;;;;;8.07;2.13;;;32.20;94.80;;;;;;5052532;28;20025;-74
2022/08/23 13:29:05;;;;;;;12.02;2.60;;;32.50;93.60;;;;;;5052757;28;20614;-74
2022/08/23 13:31:55;;;;;;;5.13;1.83;;;32.50;95.30;;;;;;5041745;28;20040;-74
2022/08/23 13:34:42;;;;;;;5.15;1.70;;;32.50;93.50;;;;;;5053245;28;20033;-74
2022/08/23 13:37:16;;;;;;;8.02;1.80;;;32.40;94.80;;;;;;5032159;28;20458;-74
2022/08/23 13:39:57;;;;;;;4.13;1.77;;;32.60;95.70;;;;;;5046811;28;20056;-74
2022/08/23 13:42:40;;;;;;;5.07;1.77;;;32.50;93.20;;;;;;5030923;28;20038;-74
2022/08/23 13:45:13;;;;;;;7.80;1.98;;;32.70;93.70;;;;;;5060045;28;20481;-74
2022/08/23 13:47:48;;;;;;;4.38;1.83;;;32.40;95.90;;;;;;5049216;28;20099;-74
2022/08/23 13:50:25;;;;;;;5.88;2.00;;;32.20;94.40;;;;;;5064083;28;20457;-74
2022/08/23 13:52:50;;;;;;;9.30;2.38;;;31.90;96.40;;;;;;5036654;28;20048;-74
2022/08/23 13:55:16;;;;;;;7.30;2.03;;;31.80;96.80;;;;;;5042872;28;20069;-74
2022/08/23 13:57:42;;;;;;;5.50;2.17;;;;;;;;;;5041195;28;20123;-74
2022/08/23 14:00:09;;;;;;;8.00;2.00;;;;;;;;;;5052278;28;20533;-74
2022/08/23 14:02:36;;;;;;;7.47;2.30;;;31.70;97.70;;;;;;5055999;28;20035;-74
2022/08/23 14:05:02;;;;;;;7.50;2.22;;;31.90;99.20;;;;;;5039980;28;20040;-74
2022/08/23 14:07:28;;;;;;;5.22;2.00;;;31.70;99.20;;;;;;5053151;28;20416;-74
2022/08/23 14:09:56;;;;;;;5.55;2.10;;;;;;;;;;5062967;28;20544;-75
2022/08/23 14:12:26;;;;;;;8.13;2.03;;;;;;;;;;5061779;28;20468;-74
2022/08/23 14:14:52;;;;;;;4.50;1.77;;;;;;;;;;5062969;28;20035;-75
2022/08/23 14:17:18;;;;;;;6.63;1.83;;;;;;;;;;5035814;28;20033;-74
2022/08/23 14:19:45;;;;;;;6.03;1.75;;;;;;;;;;5035215;28;20132;-74
2022/08/23 14:22:12;;;;;;;4.70;2.40;;;;;;;;;;5057128;28;20033;-74
2022/08/23 14:24:39;;;;;;;7.97;2.33;;;;;;;;;;5048849;28;20030;-74
2022/08/23 14:27:06;;;;;;;6.13;1.95;;;;;;;;;;5049873;28;20029;-74